sensor_id;sensor_type;location;lat;lon;timestamp;temperature;humidity
17346;DHT22;8790;53.590;10.002;2022-09-09T00:00:23;15.20;99.90
17346;DHT22;8790;53.590;10.002;2022-09-09T00:03:02;15.20;99.90
17346;DHT22;8790;53.590;10.002;2022-09-09T00:05:42;15.20;99.90
17346;DHT22;8790;53.590;10.002;2022-09-09T00:08:20;15.20;99.90
17346;DHT22;8790;53.590;10.002;2022-09-09T00:10:58;15.20;99.90
17346;DHT22;8790;53.590;10.002;2022-09-09T00:13:34;15.20;99.90
17346;DHT22;8790;53.590;10.002;2022-09-09T00:16:11;15.20;99.90
17346;DHT22;8790;53.590;10.002;2022-09-09T00:18:52;15.20;99.90
17346;DHT22;8790;53.590;10.002;2022-09-09T00:21:34;15.20;99.90
17346;DHT22;8790;53.590;10.002;2022-09-09T00:24:11;15.20;99.90
17346;DHT22;8790;53.590;10.002;2022-09-09T00:26:52;15.20;99.90
17346;DHT22;8790;53.590;10.002;2022-09-09T00:29:33;15.30;99.90
17346;DHT22;8790;53.590;10.002;2022-09-09T00:32:12;15.30;99.90
17346;DHT22;8790;53.590;10.002;2022-09-09T00:34:48;15.30;99.90
17346;DHT22;8790;53.590;10.002;2022-09-09T00:37:22;15.30;99.90
17346;DHT22;8790;53.590;10.002;2022-09-09T00:39:59;15.40;99.90
17346;DHT22;8790;53.590;10.002;2022-09-09T00:42:39;15.40;99.90
17346;DHT22;8790;53.590;10.002;2022-09-09T00:45:24;15.40;99.90
17346;DHT22;8790;53.590;10.002;2022-09-09T00:48:04;15.40;99.90
17346;DHT22;8790;53.590;10.002;2022-09-09T00:50:46;15.40;99.90
17346;DHT22;8790;53.590;10.002;2022-09-09T00:53:28;15.50;99.90
17346;DHT22;8790;53.590;10.002;2022-09-09T00:56:12;15.40;99.90
17346;DHT22;8790;53.590;10.002;2022-09-09T00:58:59;15.40;99.90
17346;DHT22;8790;53.590;10.002;2022-09-09T01:01:32;15.50;99.90
17346;DHT22;8790;53.590;10.002;2022-09-09T01:04:07;15.50;99.90
17346;DHT22;8790;53.590;10.002;2022-09-09T01:06:40;15.50;99.90
17346;DHT22;8790;53.590;10.002;2022-09-09T01:09:19;15.50;99.90
17346;DHT22;8790;53.590;10.002;2022-09-09T01:11:59;15.50;99.90
17346;DHT22;8790;53.590;10.002;2022-09-09T01:14:40;15.50;99.90
17346;DHT22;8790;53.590;10.002;2022-09-09T01:17:20;15.50;99.90
17346;DHT22;8790;53.590;10.002;2022-09-09T01:20:08;15.50;99.90
17346;DHT22;8790;53.590;10.002;2022-09-09T01:22:59;15.50;99.90
17346;DHT22;8790;53.590;10.002;2022-09-09T01:26:10;15.50;99.90
17346;DHT22;8790;53.590;10.002;2022-09-09T01:28:47;15.50;99.90
17346;DHT22;8790;53.590;10.002;2022-09-09T01:31:23;15.50;99.90
17346;DHT22;8790;53.590;10.002;2022-09-09T01:33:57;15.50;99.90
17346;DHT22;8790;53.590;10.002;2022-09-09T01:36:37;15.50;99.90
17346;DHT22;8790;53.590;10.002;2022-09-09T01:39:10;15.50;99.90
17346;DHT22;8790;53.590;10.002;2022-09-09T01:41:45;15.50;99.90
17346;DHT22;8790;53.590;10.002;2022-09-09T01:44:19;15.50;99.90
17346;DHT22;8790;53.590;10.002;2022-09-09T01:46:51;15.40;99.90
17346;DHT22;8790;53.590;10.002;2022-09-09T01:49:25;15.50;99.90
17346;DHT22;8790;53.590;10.002;2022-09-09T01:51:57;15.50;99.90
17346;DHT22;8790;53.590;10.002;2022-09-09T01:54:37;15.50;99.90
17346;DHT22;8790;53.590;10.002;2022-09-09T01:57:21;15.50;99.90
17346;DHT22;8790;53.590;10.002;2022-09-09T02:00:03;15.50;99.90
17346;DHT22;8790;53.590;10.002;2022-09-09T02:02:52;15.40;99.90
17346;DHT22;8790;53.590;10.002;2022-09-09T02:05:37;15.40;99.90
17346;DHT22;8790;53.590;10.002;2022-09-09T02:08:20;15.40;99.90
17346;DHT22;8790;53.590;10.002;2022-09-09T02:11:03;15.40;99.90
17346;DHT22;8790;53.590;10.002;2022-09-09T02:13:48;15.30;99.90
17346;DHT22;8790;53.590;10.002;2022-09-09T02:16:26;15.30;99.90
17346;DHT22;8790;53.590;10.002;2022-09-09T02:19:02;15.40;99.90
17346;DHT22;8790;53.590;10.002;2022-09-09T02:21:47;15.30;99.90
17346;DHT22;8790;53.590;10.002;2022-09-09T02:24:21;15.30;99.90
17346;DHT22;8790;53.590;10.002;2022-09-09T02:27:06;15.30;99.90
17346;DHT22;8790;53.590;10.002;2022-09-09T02:29:42;15.30;99.90
17346;DHT22;8790;53.590;10.002;2022-09-09T02:32:20;15.30;99.90
17346;DHT22;8790;53.590;10.002;2022-09-09T02:34:57;15.30;99.90
17346;DHT22;8790;53.590;10.002;2022-09-09T02:37:33;15.20;99.90
17346;DHT22;8790;53.590;10.002;2022-09-09T02:40:09;15.30;99.90
17346;DHT22;8790;53.590;10.002;2022-09-09T02:42:47;15.20;99.90
17346;DHT22;8790;53.590;10.002;2022-09-09T02:45:25;15.20;99.90
17346;DHT22;8790;53.590;10.002;2022-09-09T02:48:03;15.20;99.90
17346;DHT22;8790;53.590;10.002;2022-09-09T02:50:48;15.20;99.90
17346;DHT22;8790;53.590;10.002;2022-09-09T02:53:31;15.20;99.90
17346;DHT22;8790;53.590;10.002;2022-09-09T02:56:09;15.20;99.90
17346;DHT22;8790;53.590;10.002;2022-09-09T02:58:46;15.20;99.90
17346;DHT22;8790;53.590;10.002;2022-09-09T03:01:20;15.20;99.90
17346;DHT22;8790;53.590;10.002;2022-09-09T03:03:52;15.20;99.90
17346;DHT22;8790;53.590;10.002;2022-09-09T03:06:25;15.20;99.90
17346;DHT22;8790;53.590;10.002;2022-09-09T03:09:06;15.20;99.90
17346;DHT22;8790;53.590;10.002;2022-09-09T03:11:38;15.20;99.90
17346;DHT22;8790;53.590;10.002;2022-09-09T03:14:11;15.20;99.90
17346;DHT22;8790;53.590;10.002;2022-09-09T03:16:46;15.10;99.90
17346;DHT22;8790;53.590;10.002;2022-09-09T03:19:18;15.10;99.90
17346;DHT22;8790;53.590;10.002;2022-09-09T03:21:50;15.10;99.90
17346;DHT22;8790;53.590;10.002;2022-09-09T03:24:22;15.10;99.90
17346;DHT22;8790;53.590;10.002;2022-09-09T03:26:54;15.10;99.90
17346;DHT22;8790;53.590;10.002;2022-09-09T03:29:26;15.10;99.90
17346;DHT22;8790;53.590;10.002;2022-09-09T03:32:02;15.10;99.90
17346;DHT22;8790;53.590;10.002;2022-09-09T03:34:34;15.10;99.90
17346;DHT22;8790;53.590;10.002;2022-09-09T03:37:08;15.10;99.90
17346;DHT22;8790;53.590;10.002;2022-09-09T03:39:40;15.10;99.90
17346;DHT22;8790;53.590;10.002;2022-09-09T03:42:14;15.10;99.90
17346;DHT22;8790;53.590;10.002;2022-09-09T03:44:49;15.00;99.90
17346;DHT22;8790;53.590;10.002;2022-09-09T03:47:24;15.00;99.90
17346;DHT22;8790;53.590;10.002;2022-09-09T03:50:09;15.00;99.90
17346;DHT22;8790;53.590;10.002;2022-09-09T03:52:46;14.90;99.90
17346;DHT22;8790;53.590;10.002;2022-09-09T03:55:24;15.00;99.90
17346;DHT22;8790;53.590;10.002;2022-09-09T03:57:56;15.00;99.90
17346;DHT22;8790;53.590;10.002;2022-09-09T04:00:28;14.90;99.90
17346;DHT22;8790;53.590;10.002;2022-09-09T04:03:02;15.00;99.90
17346;DHT22;8790;53.590;10.002;2022-09-09T04:05:34;15.00;99.90
17346;DHT22;8790;53.590;10.002;2022-09-09T04:08:10;14.90;99.90
17346;DHT22;8790;53.590;10.002;2022-09-09T04:10:44;14.90;99.90
17346;DHT22;8790;53.590;10.002;2022-09-09T04:13:17;14.90;99.90
17346;DHT22;8790;53.590;10.002;2022-09-09T04:15:51;14.90;99.90
17346;DHT22;8790;53.590;10.002;2022-09-09T04:18:26;14.90;99.90
17346;DHT22;8790;53.590;10.002;2022-09-09T04:20:58;14.90;99.90
17346;DHT22;8790;53.590;10.002;2022-09-09T04:23:33;14.80;99.90
17346;DHT22;8790;53.590;10.002;2022-09-09T04:26:06;14.80;99.90
17346;DHT22;8790;53.590;10.002;2022-09-09T04:28:39;14.80;99.90
17346;DHT22;8790;53.590;10.002;2022-09-09T04:31:20;14.80;99.90
17346;DHT22;8790;53.590;10.002;2022-09-09T04:33:56;14.80;99.90
17346;DHT22;8790;53.590;10.002;2022-09-09T04:36:32;14.70;99.90
17346;DHT22;8790;53.590;10.002;2022-09-09T04:39:07;14.70;99.90
17346;DHT22;8790;53.590;10.002;2022-09-09T04:41:39;14.70;99.90
17346;DHT22;8790;53.590;10.002;2022-09-09T04:44:11;14.80;99.90
17346;DHT22;8790;53.590;10.002;2022-09-09T04:46:43;14.80;99.90
17346;DHT22;8790;53.590;10.002;2022-09-09T04:49:17;14.80;99.90
17346;DHT22;8790;53.590;10.002;2022-09-09T04:51:48;14.80;99.90
17346;DHT22;8790;53.590;10.002;2022-09-09T04:54:21;14.80;99.90
17346;DHT22;8790;53.590;10.002;2022-09-09T04:56:55;14.80;99.90
17346;DHT22;8790;53.590;10.002;2022-09-09T04:59:27;14.90;99.90
17346;DHT22;8790;53.590;10.002;2022-09-09T05:02:02;14.80;99.90
17346;DHT22;8790;53.590;10.002;2022-09-09T05:04:35;14.80;99.90
17346;DHT22;8790;53.590;10.002;2022-09-09T05:07:15;14.80;99.90
17346;DHT22;8790;53.590;10.002;2022-09-09T05:09:46;14.80;99.90
17346;DHT22;8790;53.590;10.002;2022-09-09T05:12:20;14.90;99.90
17346;DHT22;8790;53.590;10.002;2022-09-09T05:14:55;14.80;99.90
17346;DHT22;8790;53.590;10.002;2022-09-09T05:17:27;14.90;99.90
17346;DHT22;8790;53.590;10.002;2022-09-09T05:20:01;14.90;99.90
17346;DHT22;8790;53.590;10.002;2022-09-09T05:22:35;14.90;99.90
17346;DHT22;8790;53.590;10.002;2022-09-09T05:25:08;14.90;99.90
17346;DHT22;8790;53.590;10.002;2022-09-09T05:27:39;14.90;99.90
17346;DHT22;8790;53.590;10.002;2022-09-09T05:30:12;14.90;99.90
17346;DHT22;8790;53.590;10.002;2022-09-09T05:32:44;14.90;99.90
17346;DHT22;8790;53.590;10.002;2022-09-09T05:35:18;14.90;99.90
17346;DHT22;8790;53.590;10.002;2022-09-09T05:37:51;14.90;99.90
17346;DHT22;8790;53.590;10.002;2022-09-09T05:40:23;14.90;99.90
17346;DHT22;8790;53.590;10.002;2022-09-09T05:42:55;14.90;99.90
17346;DHT22;8790;53.590;10.002;2022-09-09T05:45:30;14.90;99.90
17346;DHT22;8790;53.590;10.002;2022-09-09T05:48:02;14.90;99.90
17346;DHT22;8790;53.590;10.002;2022-09-09T05:50:36;14.90;99.90
17346;DHT22;8790;53.590;10.002;2022-09-09T05:53:08;14.90;99.90
17346;DHT22;8790;53.590;10.002;2022-09-09T05:55:46;14.90;99.90
17346;DHT22;8790;53.590;10.002;2022-09-09T05:58:19;14.90;99.90
17346;DHT22;8790;53.590;10.002;2022-09-09T06:00:50;14.90;99.90
17346;DHT22;8790;53.590;10.002;2022-09-09T06:03:22;14.90;99.90
17346;DHT22;8790;53.590;10.002;2022-09-09T06:06:01;15.00;99.90
17346;DHT22;8790;53.590;10.002;2022-09-09T06:08:37;15.00;99.90
17346;DHT22;8790;53.590;10.002;2022-09-09T06:11:12;15.00;99.90
17346;DHT22;8790;53.590;10.002;2022-09-09T06:13:44;15.00;99.90
17346;DHT22;8790;53.590;10.002;2022-09-09T06:16:18;15.00;99.90
17346;DHT22;8790;53.590;10.002;2022-09-09T06:18:51;15.10;99.90
17346;DHT22;8790;53.590;10.002;2022-09-09T06:21:28;15.10;99.90
17346;DHT22;8790;53.590;10.002;2022-09-09T06:24:02;15.10;99.90
17346;DHT22;8790;53.590;10.002;2022-09-09T06:26:36;15.10;99.90
17346;DHT22;8790;53.590;10.002;2022-09-09T06:29:09;15.00;99.90
17346;DHT22;8790;53.590;10.002;2022-09-09T06:31:40;15.10;99.90
17346;DHT22;8790;53.590;10.002;2022-09-09T06:34:18;15.00;99.90
17346;DHT22;8790;53.590;10.002;2022-09-09T06:36:56;15.10;99.90
17346;DHT22;8790;53.590;10.002;2022-09-09T06:39:29;15.10;99.90
17346;DHT22;8790;53.590;10.002;2022-09-09T06:42:01;15.10;99.90
17346;DHT22;8790;53.590;10.002;2022-09-09T06:44:58;15.10;99.90
17346;DHT22;8790;53.590;10.002;2022-09-09T06:48:03;15.10;99.90
17346;DHT22;8790;53.590;10.002;2022-09-09T06:50:35;15.10;99.90
17346;DHT22;8790;53.590;10.002;2022-09-09T06:53:08;15.10;99.90
17346;DHT22;8790;53.590;10.002;2022-09-09T06:55:40;15.10;99.90
17346;DHT22;8790;53.590;10.002;2022-09-09T06:58:16;15.10;99.90
17346;DHT22;8790;53.590;10.002;2022-09-09T07:00:49;15.10;99.90
17346;DHT22;8790;53.590;10.002;2022-09-09T07:03:21;15.10;99.90
17346;DHT22;8790;53.590;10.002;2022-09-09T07:05:54;15.10;99.90
17346;DHT22;8790;53.590;10.002;2022-09-09T07:08:29;15.20;99.90
17346;DHT22;8790;53.590;10.002;2022-09-09T07:11:03;15.20;99.90
17346;DHT22;8790;53.590;10.002;2022-09-09T07:13:37;15.30;99.90
17346;DHT22;8790;53.590;10.002;2022-09-09T07:16:15;15.40;99.90
17346;DHT22;8790;53.590;10.002;2022-09-09T07:18:47;15.50;99.90
17346;DHT22;8790;53.590;10.002;2022-09-09T07:21:21;15.50;99.90
17346;DHT22;8790;53.590;10.002;2022-09-09T07:23:54;15.60;99.90
17346;DHT22;8790;53.590;10.002;2022-09-09T07:26:28;15.60;99.90
17346;DHT22;8790;53.590;10.002;2022-09-09T07:29:03;15.60;99.90
17346;DHT22;8790;53.590;10.002;2022-09-09T07:31:37;15.60;99.90
17346;DHT22;8790;53.590;10.002;2022-09-09T07:34:14;15.60;99.90
17346;DHT22;8790;53.590;10.002;2022-09-09T07:36:45;15.60;99.90
17346;DHT22;8790;53.590;10.002;2022-09-09T07:39:19;15.60;99.90
17346;DHT22;8790;53.590;10.002;2022-09-09T07:41:54;15.60;99.90
17346;DHT22;8790;53.590;10.002;2022-09-09T07:44:27;15.70;99.90
17346;DHT22;8790;53.590;10.002;2022-09-09T07:47:07;15.70;99.90
17346;DHT22;8790;53.590;10.002;2022-09-09T07:49:43;15.90;99.90
17346;DHT22;8790;53.590;10.002;2022-09-09T07:52:17;15.90;99.90
17346;DHT22;8790;53.590;10.002;2022-09-09T07:54:52;15.90;99.90
17346;DHT22;8790;53.590;10.002;2022-09-09T07:57:24;15.90;99.90
17346;DHT22;8790;53.590;10.002;2022-09-09T07:59:57;15.90;99.90
17346;DHT22;8790;53.590;10.002;2022-09-09T08:02:29;15.90;99.90
17346;DHT22;8790;53.590;10.002;2022-09-09T08:05:03;15.90;99.90
17346;DHT22;8790;53.590;10.002;2022-09-09T08:07:36;15.90;99.90
17346;DHT22;8790;53.590;10.002;2022-09-09T08:10:10;16.00;99.90
17346;DHT22;8790;53.590;10.002;2022-09-09T08:12:45;16.00;99.90
17346;DHT22;8790;53.590;10.002;2022-09-09T08:15:17;16.00;99.90
17346;DHT22;8790;53.590;10.002;2022-09-09T08:17:49;16.00;99.90
17346;DHT22;8790;53.590;10.002;2022-09-09T08:20:21;16.10;99.90
17346;DHT22;8790;53.590;10.002;2022-09-09T08:22:55;16.10;99.90
17346;DHT22;8790;53.590;10.002;2022-09-09T08:25:28;16.10;99.90
17346;DHT22;8790;53.590;10.002;2022-09-09T08:28:01;16.20;99.90
17346;DHT22;8790;53.590;10.002;2022-09-09T08:30:34;16.20;99.90
17346;DHT22;8790;53.590;10.002;2022-09-09T08:33:06;16.20;99.90
17346;DHT22;8790;53.590;10.002;2022-09-09T08:35:39;16.20;99.90
17346;DHT22;8790;53.590;10.002;2022-09-09T08:38:11;16.30;99.90
17346;DHT22;8790;53.590;10.002;2022-09-09T08:40:48;16.30;99.90
17346;DHT22;8790;53.590;10.002;2022-09-09T08:43:23;16.30;99.90
17346;DHT22;8790;53.590;10.002;2022-09-09T08:46:00;16.30;99.90
17346;DHT22;8790;53.590;10.002;2022-09-09T08:48:45;16.30;99.90
17346;DHT22;8790;53.590;10.002;2022-09-09T08:51:17;16.30;99.90
17346;DHT22;8790;53.590;10.002;2022-09-09T08:53:51;16.40;99.90
17346;DHT22;8790;53.590;10.002;2022-09-09T08:56:26;16.40;99.90
17346;DHT22;8790;53.590;10.002;2022-09-09T08:59:02;16.40;99.90
17346;DHT22;8790;53.590;10.002;2022-09-09T09:01:52;16.40;99.90
17346;DHT22;8790;53.590;10.002;2022-09-09T09:04:56;16.40;99.90
17346;DHT22;8790;53.590;10.002;2022-09-09T09:07:39;16.50;99.90
17346;DHT22;8790;53.590;10.002;2022-09-09T09:10:23;16.50;99.90
17346;DHT22;8790;53.590;10.002;2022-09-09T09:12:58;16.60;99.90
17346;DHT22;8790;53.590;10.002;2022-09-09T09:15:36;16.60;99.90
17346;DHT22;8790;53.590;10.002;2022-09-09T09:18:12;16.60;99.90
17346;DHT22;8790;53.590;10.002;2022-09-09T09:20:54;16.70;99.90
17346;DHT22;8790;53.590;10.002;2022-09-09T09:23:33;16.70;99.90
17346;DHT22;8790;53.590;10.002;2022-09-09T09:26:09;16.70;99.90
17346;DHT22;8790;53.590;10.002;2022-09-09T09:28:44;16.80;99.90
17346;DHT22;8790;53.590;10.002;2022-09-09T09:31:20;16.80;99.90
17346;DHT22;8790;53.590;10.002;2022-09-09T09:33:55;16.80;99.90
17346;DHT22;8790;53.590;10.002;2022-09-09T09:36:39;16.90;99.90
17346;DHT22;8790;53.590;10.002;2022-09-09T09:39:22;16.90;99.90
17346;DHT22;8790;53.590;10.002;2022-09-09T09:41:55;17.00;99.90
17346;DHT22;8790;53.590;10.002;2022-09-09T09:44:31;17.00;99.90
17346;DHT22;8790;53.590;10.002;2022-09-09T09:47:14;17.00;99.90
17346;DHT22;8790;53.590;10.002;2022-09-09T09:49:53;17.00;99.90
17346;DHT22;8790;53.590;10.002;2022-09-09T09:52:28;17.10;99.90
17346;DHT22;8790;53.590;10.002;2022-09-09T09:55:04;17.10;99.90
17346;DHT22;8790;53.590;10.002;2022-09-09T09:57:38;17.10;99.90
17346;DHT22;8790;53.590;10.002;2022-09-09T10:00:16;17.10;99.90
17346;DHT22;8790;53.590;10.002;2022-09-09T10:02:55;17.10;99.90
17346;DHT22;8790;53.590;10.002;2022-09-09T10:05:30;17.20;99.90
17346;DHT22;8790;53.590;10.002;2022-09-09T10:08:11;17.30;99.90
17346;DHT22;8790;53.590;10.002;2022-09-09T10:10:52;17.40;99.90
17346;DHT22;8790;53.590;10.002;2022-09-09T10:13:30;17.40;99.90
17346;DHT22;8790;53.590;10.002;2022-09-09T10:16:18;17.40;99.90
17346;DHT22;8790;53.590;10.002;2022-09-09T10:18:58;17.50;99.90
17346;DHT22;8790;53.590;10.002;2022-09-09T10:21:51;17.50;99.90
17346;DHT22;8790;53.590;10.002;2022-09-09T10:24:37;17.50;99.90
17346;DHT22;8790;53.590;10.002;2022-09-09T10:27:19;17.60;99.90
17346;DHT22;8790;53.590;10.002;2022-09-09T10:30:08;17.60;99.90
17346;DHT22;8790;53.590;10.002;2022-09-09T10:32:47;17.70;99.90
17346;DHT22;8790;53.590;10.002;2022-09-09T10:35:30;17.70;99.90
17346;DHT22;8790;53.590;10.002;2022-09-09T10:38:12;17.70;99.90
17346;DHT22;8790;53.590;10.002;2022-09-09T10:41:06;17.70;99.90
17346;DHT22;8790;53.590;10.002;2022-09-09T10:43:59;17.90;99.90
17346;DHT22;8790;53.590;10.002;2022-09-09T10:46:43;17.90;99.90
17346;DHT22;8790;53.590;10.002;2022-09-09T10:49:28;18.00;99.90
17346;DHT22;8790;53.590;10.002;2022-09-09T10:52:07;18.00;99.90
17346;DHT22;8790;53.590;10.002;2022-09-09T10:54:53;18.10;99.90
17346;DHT22;8790;53.590;10.002;2022-09-09T10:57:31;18.20;99.90
17346;DHT22;8790;53.590;10.002;2022-09-09T11:00:13;18.30;99.90
17346;DHT22;8790;53.590;10.002;2022-09-09T11:02:48;18.30;99.90
17346;DHT22;8790;53.590;10.002;2022-09-09T11:05:28;18.30;99.90
17346;DHT22;8790;53.590;10.002;2022-09-09T11:08:04;18.20;99.90
17346;DHT22;8790;53.590;10.002;2022-09-09T11:10:39;18.20;99.90
17346;DHT22;8790;53.590;10.002;2022-09-09T11:13:17;18.20;99.90
17346;DHT22;8790;53.590;10.002;2022-09-09T11:15:52;18.20;99.90
17346;DHT22;8790;53.590;10.002;2022-09-09T11:18:24;18.20;99.90
17346;DHT22;8790;53.590;10.002;2022-09-09T11:21:00;18.20;99.90
17346;DHT22;8790;53.590;10.002;2022-09-09T11:23:39;18.20;99.90
17346;DHT22;8790;53.590;10.002;2022-09-09T11:26:17;18.30;99.90
17346;DHT22;8790;53.590;10.002;2022-09-09T11:29:02;18.30;99.90
17346;DHT22;8790;53.590;10.002;2022-09-09T11:31:44;18.30;99.90
17346;DHT22;8790;53.590;10.002;2022-09-09T11:34:23;18.40;99.90
17346;DHT22;8790;53.590;10.002;2022-09-09T11:37:13;18.40;99.90
17346;DHT22;8790;53.590;10.002;2022-09-09T11:40:07;18.50;99.90
17346;DHT22;8790;53.590;10.002;2022-09-09T11:42:40;18.50;99.90
17346;DHT22;8790;53.590;10.002;2022-09-09T11:45:22;18.50;99.90
17346;DHT22;8790;53.590;10.002;2022-09-09T11:47:57;18.50;99.90
17346;DHT22;8790;53.590;10.002;2022-09-09T11:50:32;18.50;99.90
17346;DHT22;8790;53.590;10.002;2022-09-09T11:53:19;18.40;99.90
17346;DHT22;8790;53.590;10.002;2022-09-09T11:56:29;18.40;99.90
17346;DHT22;8790;53.590;10.002;2022-09-09T11:59:04;18.40;99.90
17346;DHT22;8790;53.590;10.002;2022-09-09T12:01:41;18.40;99.90
17346;DHT22;8790;53.590;10.002;2022-09-09T12:04:29;18.50;99.90
17346;DHT22;8790;53.590;10.002;2022-09-09T12:07:04;18.50;99.90
17346;DHT22;8790;53.590;10.002;2022-09-09T12:09:45;18.50;99.90
17346;DHT22;8790;53.590;10.002;2022-09-09T12:12:29;18.50;99.90
17346;DHT22;8790;53.590;10.002;2022-09-09T12:15:23;18.50;99.90
17346;DHT22;8790;53.590;10.002;2022-09-09T12:17:59;18.50;99.90
17346;DHT22;8790;53.590;10.002;2022-09-09T12:20:34;18.50;99.90
17346;DHT22;8790;53.590;10.002;2022-09-09T12:23:22;18.50;99.90
17346;DHT22;8790;53.590;10.002;2022-09-09T12:26:19;18.50;99.90
17346;DHT22;8790;53.590;10.002;2022-09-09T12:28:58;18.50;99.90
17346;DHT22;8790;53.590;10.002;2022-09-09T12:31:41;18.50;99.90
17346;DHT22;8790;53.590;10.002;2022-09-09T12:34:17;18.50;99.90
17346;DHT22;8790;53.590;10.002;2022-09-09T12:36:55;18.50;99.90
17346;DHT22;8790;53.590;10.002;2022-09-09T12:39:32;18.50;99.90
17346;DHT22;8790;53.590;10.002;2022-09-09T12:42:16;18.50;99.90
17346;DHT22;8790;53.590;10.002;2022-09-09T12:44:52;18.60;99.90
17346;DHT22;8790;53.590;10.002;2022-09-09T12:47:29;18.60;99.90
17346;DHT22;8790;53.590;10.002;2022-09-09T12:50:04;18.60;99.90
17346;DHT22;8790;53.590;10.002;2022-09-09T12:52:36;18.60;99.90
17346;DHT22;8790;53.590;10.002;2022-09-09T12:55:16;18.60;99.90
17346;DHT22;8790;53.590;10.002;2022-09-09T12:57:57;18.60;99.90
17346;DHT22;8790;53.590;10.002;2022-09-09T13:00:30;18.60;99.90
17346;DHT22;8790;53.590;10.002;2022-09-09T13:03:14;18.60;99.90
17346;DHT22;8790;53.590;10.002;2022-09-09T13:05:48;18.50;99.90
17346;DHT22;8790;53.590;10.002;2022-09-09T13:08:20;18.50;99.90
17346;DHT22;8790;53.590;10.002;2022-09-09T13:10:54;18.60;99.90
17346;DHT22;8790;53.590;10.002;2022-09-09T13:13:31;18.50;99.90
17346;DHT22;8790;53.590;10.002;2022-09-09T13:16:18;18.40;99.90
17346;DHT22;8790;53.590;10.002;2022-09-09T13:18:51;18.40;99.90
17346;DHT22;8790;53.590;10.002;2022-09-09T13:21:32;18.40;99.90
17346;DHT22;8790;53.590;10.002;2022-09-09T13:24:06;18.30;99.90
17346;DHT22;8790;53.590;10.002;2022-09-09T13:26:40;18.30;99.90
17346;DHT22;8790;53.590;10.002;2022-09-09T13:29:18;18.30;99.90
17346;DHT22;8790;53.590;10.002;2022-09-09T13:31:50;18.30;99.90
17346;DHT22;8790;53.590;10.002;2022-09-09T13:34:28;18.30;99.90
17346;DHT22;8790;53.590;10.002;2022-09-09T13:37:01;18.20;99.90
17346;DHT22;8790;53.590;10.002;2022-09-09T13:39:35;18.30;99.90
17346;DHT22;8790;53.590;10.002;2022-09-09T13:42:23;18.10;99.90
17346;DHT22;8790;53.590;10.002;2022-09-09T13:44:59;18.00;99.90
17346;DHT22;8790;53.590;10.002;2022-09-09T13:47:32;17.90;99.90
17346;DHT22;8790;53.590;10.002;2022-09-09T13:50:19;17.80;99.90
17346;DHT22;8790;53.590;10.002;2022-09-09T13:52:53;17.80;99.90
17346;DHT22;8790;53.590;10.002;2022-09-09T13:55:26;17.80;99.90
17346;DHT22;8790;53.590;10.002;2022-09-09T13:58:00;17.70;99.90
17346;DHT22;8790;53.590;10.002;2022-09-09T14:00:34;17.70;99.90
17346;DHT22;8790;53.590;10.002;2022-09-09T14:03:07;17.70;99.90
17346;DHT22;8790;53.590;10.002;2022-09-09T14:05:38;17.70;99.90
17346;DHT22;8790;53.590;10.002;2022-09-09T14:08:16;17.70;99.90
17346;DHT22;8790;53.590;10.002;2022-09-09T14:10:51;17.60;99.90
17346;DHT22;8790;53.590;10.002;2022-09-09T14:13:23;17.60;99.90
17346;DHT22;8790;53.590;10.002;2022-09-09T14:15:56;17.50;99.90
17346;DHT22;8790;53.590;10.002;2022-09-09T14:18:28;17.60;99.90
17346;DHT22;8790;53.590;10.002;2022-09-09T14:21:00;17.50;99.90
17346;DHT22;8790;53.590;10.002;2022-09-09T14:23:32;17.50;99.90
17346;DHT22;8790;53.590;10.002;2022-09-09T14:26:04;17.50;99.90
17346;DHT22;8790;53.590;10.002;2022-09-09T14:28:37;17.50;99.90
17346;DHT22;8790;53.590;10.002;2022-09-09T14:31:12;17.50;99.90
17346;DHT22;8790;53.590;10.002;2022-09-09T14:33:44;17.50;99.90
17346;DHT22;8790;53.590;10.002;2022-09-09T14:36:16;17.50;99.90
17346;DHT22;8790;53.590;10.002;2022-09-09T14:38:48;17.50;99.90
17346;DHT22;8790;53.590;10.002;2022-09-09T14:41:20;17.50;99.90
17346;DHT22;8790;53.590;10.002;2022-09-09T14:43:53;17.40;99.90
17346;DHT22;8790;53.590;10.002;2022-09-09T14:46:26;17.40;99.90
17346;DHT22;8790;53.590;10.002;2022-09-09T14:48:58;17.30;99.90
17346;DHT22;8790;53.590;10.002;2022-09-09T14:51:29;17.30;99.90
17346;DHT22;8790;53.590;10.002;2022-09-09T14:54:01;17.30;99.90
17346;DHT22;8790;53.590;10.002;2022-09-09T14:56:33;17.20;99.90
17346;DHT22;8790;53.590;10.002;2022-09-09T14:59:05;17.20;99.90
17346;DHT22;8790;53.590;10.002;2022-09-09T15:01:39;17.20;99.90
17346;DHT22;8790;53.590;10.002;2022-09-09T15:04:12;17.20;99.90
17346;DHT22;8790;53.590;10.002;2022-09-09T15:06:45;17.20;99.90
17346;DHT22;8790;53.590;10.002;2022-09-09T15:09:18;17.20;99.90
17346;DHT22;8790;53.590;10.002;2022-09-09T15:11:50;17.10;99.90
17346;DHT22;8790;53.590;10.002;2022-09-09T15:14:22;17.10;99.90
17346;DHT22;8790;53.590;10.002;2022-09-09T15:16:55;17.10;99.90
17346;DHT22;8790;53.590;10.002;2022-09-09T15:19:26;17.10;99.90
17346;DHT22;8790;53.590;10.002;2022-09-09T15:21:58;17.10;99.90
17346;DHT22;8790;53.590;10.002;2022-09-09T15:24:30;17.10;99.90
17346;DHT22;8790;53.590;10.002;2022-09-09T15:27:02;17.10;99.90
17346;DHT22;8790;53.590;10.002;2022-09-09T15:29:34;17.20;99.90
17346;DHT22;8790;53.590;10.002;2022-09-09T15:32:07;17.10;99.90
17346;DHT22;8790;53.590;10.002;2022-09-09T15:34:39;17.10;99.90
17346;DHT22;8790;53.590;10.002;2022-09-09T15:37:11;17.10;99.90
17346;DHT22;8790;53.590;10.002;2022-09-09T15:39:44;17.10;99.90
17346;DHT22;8790;53.590;10.002;2022-09-09T15:42:15;17.10;99.90
17346;DHT22;8790;53.590;10.002;2022-09-09T15:44:47;17.10;99.90
17346;DHT22;8790;53.590;10.002;2022-09-09T15:47:20;17.10;99.90
17346;DHT22;8790;53.590;10.002;2022-09-09T15:49:52;17.10;99.90
17346;DHT22;8790;53.590;10.002;2022-09-09T15:52:23;17.00;99.90
17346;DHT22;8790;53.590;10.002;2022-09-09T15:54:55;17.00;99.90
17346;DHT22;8790;53.590;10.002;2022-09-09T15:57:27;17.10;99.90
17346;DHT22;8790;53.590;10.002;2022-09-09T15:59:58;17.00;99.90
17346;DHT22;8790;53.590;10.002;2022-09-09T16:02:31;17.00;99.90
17346;DHT22;8790;53.590;10.002;2022-09-09T16:05:04;17.00;99.90
17346;DHT22;8790;53.590;10.002;2022-09-09T16:07:35;17.00;99.90
17346;DHT22;8790;53.590;10.002;2022-09-09T16:10:07;17.00;99.90
17346;DHT22;8790;53.590;10.002;2022-09-09T16:12:39;17.10;99.90
17346;DHT22;8790;53.590;10.002;2022-09-09T16:15:11;17.10;99.90
17346;DHT22;8790;53.590;10.002;2022-09-09T16:17:44;17.10;99.90
17346;DHT22;8790;53.590;10.002;2022-09-09T16:20:16;17.20;99.90
17346;DHT22;8790;53.590;10.002;2022-09-09T16:22:49;17.20;99.90
17346;DHT22;8790;53.590;10.002;2022-09-09T16:25:21;17.20;99.90
17346;DHT22;8790;53.590;10.002;2022-09-09T16:27:53;17.20;99.90